Time;durP1;ratioP1;P1;durP2;ratioP2;P2;SDS_P1;SDS_P2;PMS_P1;PMS_P2;Temp;Humidity;BMP_temperature;BMP_pressure;BME280_temperature;BME280_humidity;BME280_pressure;Samples;Min_cycle;Max_cycle;Signal;HPM_P1;HPM_P2
2024/01/22 00:02:22;;;;;;;7.80;3.00;;;;;;;6.31;100.00;101052.25;5049744;28;21072;-62
2024/01/22 00:04:47;;;;;;;7.90;2.90;;;;;;;6.38;100.00;101048.06;5049878;28;20033;-62
2024/01/22 00:07:13;;;;;;;8.30;2.80;;;;;;;6.44;100.00;101017.34;5030848;28;20051;-62
2024/01/22 00:09:38;;;;;;;7.63;2.88;;;;;;;6.38;100.00;101007.00;5049197;28;20033;-62
2024/01/22 00:12:04;;;;;;;6.75;2.80;;;;;;;6.29;100.00;101010.28;5052461;28;20033;-62
2024/01/22 00:14:29;;;;;;;7.10;3.05;;;;;;;6.30;100.00;100997.50;5050254;28;20163;-62
2024/01/22 00:16:54;;;;;;;7.82;2.67;;;;;;;6.29;100.00;100993.19;5049502;28;20508;-62
2024/01/22 00:19:20;;;;;;;8.30;3.70;;;;;;;6.36;100.00;100986.44;5053748;28;20033;-62
2024/01/22 00:21:45;;;;;;;7.38;3.08;;;;;;;6.38;100.00;100964.19;5062701;28;20119;-62
2024/01/22 00:24:10;;;;;;;8.43;3.17;;;;;;;6.40;100.00;100964.22;5048874;28;20036;-62
2024/01/22 00:26:36;;;;;;;6.55;2.97;;;;;;;6.42;100.00;100939.41;5045944;28;20037;-62
2024/01/22 00:29:01;;;;;;;8.95;2.78;;;;;;;6.41;100.00;100927.44;5048603;28;20025;-62
2024/01/22 00:31:27;;;;;;;5.90;2.40;;;;;;;6.51;100.00;100922.41;5049508;28;20517;-62
2024/01/22 00:33:52;;;;;;;7.60;2.33;;;;;;;6.64;100.00;100921.72;5047882;28;20443;-62
2024/01/22 00:36:18;;;;;;;9.15;2.88;;;;;;;6.82;100.00;100903.03;5048661;28;20056;-62
2024/01/22 00:38:43;;;;;;;5.63;2.50;;;;;;;6.95;100.00;100914.25;5048915;28;20033;-62
2024/01/22 00:41:09;;;;;;;4.82;2.58;;;;;;;6.98;100.00;100904.88;5048420;28;20472;-62
2024/01/22 00:43:36;;;;;;;8.73;2.55;;;;;;;7.14;100.00;100904.16;5054467;28;20395;-62
2024/01/22 00:46:02;;;;;;;10.35;2.42;;;;;;;7.18;100.00;100898.22;5050966;28;20554;-62
2024/01/22 00:48:27;;;;;;;7.28;2.13;;;;;;;7.26;100.00;100896.56;5048825;28;20040;-62
2024/01/22 00:50:53;;;;;;;4.25;1.80;;;;;;;7.21;100.00;100887.94;5048287;28;20029;-62
2024/01/22 00:53:18;;;;;;;4.47;1.98;;;;;;;7.26;100.00;100882.84;5053739;28;20083;-62
2024/01/22 00:55:44;;;;;;;3.75;1.83;;;;;;;7.25;100.00;100866.56;5049166;28;20098;-62
2024/01/22 00:58:09;;;;;;;4.05;2.17;;;;;;;7.25;100.00;100869.13;5048458;28;20437;-62
2024/01/22 01:00:34;;;;;;;4.97;1.63;;;;;;;7.30;100.00;100846.88;5047889;28;20037;-62
2024/01/22 01:03:00;;;;;;;5.05;2.63;;;;;;;7.33;100.00;100849.47;5048032;28;20523;-62
2024/01/22 01:05:25;;;;;;;4.78;1.88;;;;;;;7.39;100.00;100834.06;5048103;28;20697;-62
2024/01/22 01:07:50;;;;;;;4.20;1.73;;;;;;;7.38;100.00;100859.78;5054360;28;20113;-65
2024/01/22 01:10:16;;;;;;;5.10;1.83;;;;;;;7.38;100.00;100858.09;5048609;28;20029;-62
2024/01/22 01:12:41;;;;;;;6.20;1.73;;;;;;;7.45;100.00;100840.97;5054019;28;20033;-62
2024/01/22 01:15:07;;;;;;;3.67;1.50;;;;;;;7.52;100.00;100842.72;5049671;28;20310;-62
2024/01/22 01:17:33;;;;;;;3.88;1.67;;;;;;;7.54;100.00;100845.28;5052383;28;20071;-62
2024/01/22 01:19:58;;;;;;;3.13;1.80;;;;;;;7.51;100.00;100817.84;5050188;28;20036;-62
2024/01/22 01:22:23;;;;;;;4.75;1.58;;;;;;;7.64;100.00;100811.03;5048739;28;20033;-63
2024/01/22 01:24:49;;;;;;;2.58;1.50;;;;;;;7.56;100.00;100815.31;5046342;28;20032;-62
2024/01/22 01:27:16;;;;;;;3.15;1.55;;;;;;;7.48;100.00;100812.69;5047839;28;20056;-62
2024/01/22 01:29:41;;;;;;;2.70;1.67;;;;;;;7.45;100.00;100836.69;5046849;28;20041;-62
2024/01/22 01:32:07;;;;;;;3.72;1.88;;;;;;;7.55;100.00;100832.44;5048909;28;20052;-62
2024/01/22 01:34:32;;;;;;;4.15;1.67;;;;;;;7.49;100.00;100808.41;5050417;28;20029;-62
2024/01/22 01:36:57;;;;;;;3.65;1.80;;;;;;;7.65;100.00;100802.50;5047894;28;20033;-62
2024/01/22 01:39:23;;;;;;;5.00;1.90;;;;;;;7.70;100.00;100775.91;5047544;28;20112;-62
2024/01/22 01:41:49;;;;;;;3.28;1.63;;;;;;;7.56;100.00;100785.31;5047717;28;20033;-62
2024/01/22 01:44:14;;;;;;;3.67;1.73;;;;;;;7.52;100.00;100791.28;5052931;28;20032;-61
2024/01/22 01:46:40;;;;;;;3.10;1.65;;;;;;;7.59;100.00;100792.16;5050851;28;20033;-61
2024/01/22 01:49:06;;;;;;;6.35;1.90;;;;;;;7.62;100.00;100776.75;5047072;28;20057;-62
2024/01/22 01:51:32;;;;;;;7.72;2.17;;;;;;;7.58;100.00;100763.00;5047935;28;20096;-61
2024/01/22 01:53:58;;;;;;;4.35;1.75;;;;;;;7.57;100.00;100743.28;5052433;28;20053;-62
2024/01/22 01:56:24;;;;;;;3.50;1.48;;;;;;;7.70;100.00;100723.59;5047411;28;20032;-62
2024/01/22 01:58:50;;;;;;;3.35;1.85;;;;;;;7.65;100.00;100721.03;5029757;28;20029;-62
2024/01/22 02:01:16;;;;;;;3.55;1.83;;;;;;;7.66;100.00;100742.44;5047483;28;20760;-62
2024/01/22 02:03:41;;;;;;;4.40;1.60;;;;;;;7.60;100.00;100758.72;5047188;28;20033;-61
2024/01/22 02:06:07;;;;;;;5.82;1.63;;;;;;;7.59;100.00;100759.59;5046686;28;20044;-62
2024/01/22 02:08:32;;;;;;;3.85;1.52;;;;;;;7.62;100.00;100746.75;5047318;28;20044;-61
2024/01/22 02:10:57;;;;;;;2.60;1.50;;;;;;;7.65;100.00;100744.19;5049726;28;20119;-62
2024/01/22 02:13:25;;;;;;;2.58;1.58;;;;;;;7.59;100.00;100757.03;5050698;28;20025;-62
2024/01/22 02:15:51;;;;;;;4.10;1.63;;;;;;;7.59;100.00;100748.44;5030034;28;20036;-62
2024/01/22 02:18:16;;;;;;;5.00;1.50;;;;;;;7.55;100.00;100714.13;5052245;28;20045;-61
2024/01/22 02:20:41;;;;;;;3.85;1.50;;;;;;;7.81;100.00;100725.34;5051542;28;20516;-62
2024/01/22 02:23:07;;;;;;;3.83;1.45;;;;;;;7.75;100.00;100707.31;5046937;28;20058;-61
2024/01/22 02:25:33;;;;;;;2.95;1.33;;;;;;;7.84;100.00;100676.47;5044304;28;20032;-61
2024/01/22 02:27:58;;;;;;;3.75;1.67;;;;;;;7.77;100.00;100682.44;5046701;28;20029;-62
2024/01/22 02:30:24;;;;;;;5.28;1.67;;;;;;;7.78;100.00;100663.59;5047263;28;20451;-62
2024/01/22 02:32:49;;;;;;;3.13;1.48;;;;;;;7.81;100.00;100694.47;5046816;28;20029;-62
2024/01/22 02:35:15;;;;;;;3.05;1.60;;;;;;;7.92;100.00;100730.53;5029481;28;20512;-62
2024/01/22 02:37:41;;;;;;;4.43;2.03;;;;;;;7.84;100.00;100735.66;5047335;28;20025;-62
2024/01/22 02:40:06;;;;;;;3.10;1.67;;;;;;;7.78;100.00;100712.47;5046795;28;20523;-62
2024/01/22 02:42:32;;;;;;;6.15;1.60;;;;;;;7.72;100.00;100711.59;5052949;28;20029;-61
2024/01/22 02:44:59;;;;;;;2.67;1.70;;;;;;;7.77;100.00;100713.31;5052848;28;20106;-62
2024/01/22 02:47:24;;;;;;;8.88;1.40;;;;;;;7.78;100.00;100739.91;5053693;28;20044;-62
2024/01/22 02:49:49;;;;;;;2.70;1.58;;;;;;;7.77;100.00;100758.81;5047404;28;20133;-62
2024/01/22 02:52:15;;;;;;;4.45;1.65;;;;;;;7.92;100.00;100746.81;5051193;28;20040;-62
2024/01/22 02:54:40;;;;;;;4.68;1.88;;;;;;;8.05;100.00;100697.91;5055478;28;20509;-62
2024/01/22 02:57:06;;;;;;;3.40;1.60;;;;;;;8.06;100.00;100661.03;5050360;28;20037;-62
2024/01/22 02:59:31;;;;;;;4.43;1.70;;;;;;;8.00;99.88;100634.44;5050309;28;20060;-62
2024/01/22 03:01:56;;;;;;;2.72;1.40;;;;;;;7.98;100.00;100641.28;5050656;28;20102;-62
2024/01/22 03:04:22;;;;;;;3.70;1.58;;;;;;;7.98;100.00;100622.44;5033331;28;20508;-62
2024/01/22 03:06:47;;;;;;;6.65;1.73;;;;;;;7.91;100.00;100613.00;5049802;28;20049;-62
2024/01/22 03:09:12;;;;;;;4.15;1.40;;;;;;;7.97;100.00;100597.56;5032176;28;20119;-62
2024/01/22 03:11:38;;;;;;;4.00;1.80;;;;;;;7.97;100.00;100567.53;5037264;28;20044;-62
2024/01/22 03:14:03;;;;;;;3.58;1.30;;;;;;;7.95;100.00;100564.09;5051538;28;20075;-63
2024/01/22 03:16:29;;;;;;;2.65;1.48;;;;;;;8.06;99.59;100547.78;5052955;28;20033;-62
2024/01/22 03:18:54;;;;;;;3.50;1.50;;;;;;;8.06;100.00;100548.66;5058009;28;20028;-62
2024/01/22 03:21:20;;;;;;;5.57;2.55;;;;;;;8.00;100.00;100538.34;5049621;28;20037;-62
2024/01/22 03:23:45;;;;;;;5.38;1.20;;;;;;;7.95;100.00;100551.22;5050162;28;20033;-62
2024/01/22 03:26:20;;;;;;;2.72;1.50;;;;;;;7.92;100.00;100563.25;5046397;28;20036;-62
2024/01/22 03:28:48;;;;;;;2.90;1.45;;;;;;;7.96;100.00;100568.38;5050693;28;20052;-62
2024/01/22 03:31:23;;;;;;;3.63;1.52;;;;;;;7.95;100.00;100597.53;5049847;28;20595;-62
2024/01/22 03:33:52;;;;;;;5.35;1.10;;;;;;;7.95;100.00;100578.69;5050225;28;20033;-62
2024/01/22 03:36:18;;;;;;;2.42;1.30;;;;;;;7.97;100.00;100585.56;5049547;28;20385;-62
2024/01/22 03:38:44;;;;;;;1.92;1.30;;;;;;;7.92;100.00;100604.44;5049013;28;20102;-62
2024/01/22 03:41:09;;;;;;;2.05;1.27;;;;;;;7.86;100.00;100610.41;5049968;28;20067;-62
2024/01/22 03:43:35;;;;;;;5.18;1.17;;;;;;;7.91;100.00;100593.28;5055911;28;20633;-63
2024/01/22 03:46:00;;;;;;;1.77;1.20;;;;;;;7.84;100.00;100598.41;5034464;28;20562;-62
2024/01/22 03:48:25;;;;;;;2.22;1.10;;;;;;;7.93;100.00;100598.41;5049901;28;20119;-62
2024/01/22 03:50:53;;;;;;;3.50;1.23;;;;;;;7.80;100.00;100628.41;5063796;28;20041;-62
2024/01/22 03:53:18;;;;;;;3.88;1.20;;;;;;;7.79;100.00;100649.00;5049308;28;20124;-62
2024/01/22 03:55:43;;;;;;;4.07;1.13;;;;;;;7.92;100.00;100646.44;5049256;28;20109;-61
2024/01/22 03:58:09;;;;;;;1.92;1.15;;;;;;;8.04;100.00;100644.75;5049540;28;20060;-61
2024/01/22 04:00:34;;;;;;;1.83;1.10;;;;;;;8.10;100.00;100635.28;5056583;28;20033;-62
2024/01/22 04:03:00;;;;;;;0.80;0.80;;;;;;;8.06;100.00;100641.31;5048505;28;20036;-62
2024/01/22 04:05:25;;;;;;;1.80;1.08;;;;;;;8.10;100.00;100634.44;5047518;28;20586;-61
2024/01/22 04:07:50;;;;;;;2.15;1.10;;;;;;;8.13;100.00;100613.84;5049262;28;20083;-62
2024/01/22 04:10:16;;;;;;;2.92;1.52;;;;;;;8.12;100.00;100612.13;5029504;28;20042;-62
2024/01/22 04:12:41;;;;;;;3.92;1.00;;;;;;;8.12;100.00;100609.56;5029721;28;20033;-62
2024/01/22 04:15:07;;;;;;;2.55;1.27;;;;;;;8.08;100.00;100595.81;5040084;28;20159;-62
2024/01/22 04:17:32;;;;;;;1.77;0.90;;;;;;;8.07;100.00;100593.25;5043414;28;20156;-62
2024/01/22 04:19:57;;;;;;;2.13;1.10;;;;;;;8.16;100.00;100585.53;5034898;28;20044;-62
2024/01/22 04:22:23;;;;;;;4.05;1.52;;;;;;;8.23;100.00;100574.34;5049655;28;20029;-62
2024/01/22 04:24:48;;;;;;;1.85;0.90;;;;;;;8.29;100.00;100561.47;5016164;28;20033;-61
2024/01/22 04:27:14;;;;;;;2.58;1.00;;;;;;;8.26;100.00;100551.16;5028111;28;20026;-62
2024/01/22 04:29:39;;;;;;;2.25;1.27;;;;;;;8.30;100.00;100534.84;5064682;28;20116;-61
2024/01/22 04:32:05;;;;;;;1.40;0.95;;;;;;;8.28;100.00;100529.69;5047294;28;20436;-62
2024/01/22 04:34:31;;;;;;;1.10;0.90;;;;;;;8.27;100.00;100516.84;5029903;28;20443;-62
2024/01/22 04:36:56;;;;;;;1.10;0.75;;;;;;;8.31;100.00;100516.81;5046166;28;20033;-62
2024/01/22 04:39:23;;;;;;;2.40;1.15;;;;;;;8.36;100.00;100502.22;5035951;28;20091;-62
2024/01/22 04:41:48;;;;;;;2.28;0.88;;;;;;;8.34;100.00;100495.34;5029532;28;20041;-62
2024/01/22 04:44:14;;;;;;;1.95;0.85;;;;;;;8.34;100.00;100495.34;5031943;28;20039;-62
2024/01/22 04:46:39;;;;;;;0.73;0.60;;;;;;;8.23;100.00;100512.56;5051852;28;20041;-62
2024/01/22 04:49:04;;;;;;;0.80;0.70;;;;;;;8.14;100.00;100499.69;5030724;28;20029;-62
2024/01/22 04:51:30;;;;;;;3.53;1.10;;;;;;;8.04;100.00;100506.59;5029014;28;20509;-61
2024/01/22 04:53:55;;;;;;;1.67;0.95;;;;;;;7.99;100.00;100487.72;5070239;28;20076;-62
2024/01/22 04:56:20;;;;;;;2.72;0.98;;;;;;;7.92;100.00;100489.47;5045434;28;20033;-62
2024/01/22 04:58:46;;;;;;;1.95;0.80;;;;;;;7.92;100.00;100491.19;5029251;28;20711;-62
2024/01/22 05:01:12;;;;;;;2.00;1.20;;;;;;;7.91;100.00;100474.03;5048633;28;20029;-62
2024/01/22 05:03:38;;;;;;;1.65;0.70;;;;;;;7.94;100.00;100466.31;5033380;28;20057;-62
2024/01/22 05:06:03;;;;;;;2.72;0.80;;;;;;;7.95;100.00;100461.16;5026478;28;20064;-63
2024/01/22 05:08:29;;;;;;;1.85;0.70;;;;;;;7.89;100.00;100455.19;5033673;28;20568;-62
2024/01/22 05:10:54;;;;;;;2.08;1.00;;;;;;;7.91;100.00;100464.59;5032728;28;20055;-62
2024/01/22 05:13:19;;;;;;;2.08;0.88;;;;;;;7.94;100.00;100456.88;5028395;28;20030;-62
2024/01/22 05:15:45;;;;;;;1.33;0.80;;;;;;;8.00;100.00;100440.56;5028461;28;20029;-62
2024/01/22 05:18:10;;;;;;;2.25;0.90;;;;;;;8.18;100.00;100437.06;5044023;28;20041;-61
2024/01/22 05:20:36;;;;;;;1.73;1.20;;;;;;;8.19;100.00;100439.63;5041638;28;20045;-62
2024/01/22 05:23:01;;;;;;;1.42;0.80;;;;;;;8.19;100.00;100434.47;5028291;28;20026;-62
2024/01/22 05:25:26;;;;;;;1.38;1.08;;;;;;;8.18;100.00;100434.47;5025573;28;20171;-61
2024/01/22 05:27:52;;;;;;;1.50;1.00;;;;;;;8.21;100.00;100426.75;5028899;28;20408;-62
2024/01/22 05:30:17;;;;;;;1.50;1.02;;;;;;;8.24;100.00;100434.47;5039691;28;20124;-62
2024/01/22 05:32:42;;;;;;;0.93;0.60;;;;;;;8.26;100.00;100422.44;5040449;28;20048;-62
2024/01/22 05:35:08;;;;;;;3.83;0.85;;;;;;;8.34;100.00;100420.66;5027548;28;20055;-62
2024/01/22 05:37:33;;;;;;;1.00;0.80;;;;;;;8.31;100.00;100406.09;5028318;28;20024;-61
2024/01/22 05:39:59;;;;;;;1.20;0.70;;;;;;;8.47;100.00;100407.72;5045025;28;20036;-62
2024/01/22 05:42:24;;;;;;;1.27;0.77;;;;;;;8.50;100.00;100394.84;5033814;28;20499;-62
2024/01/22 05:44:49;;;;;;;0.90;0.70;;;;;;;8.45;100.00;100414.63;5047058;28;20041;-62
2024/01/22 05:47:15;;;;;;;0.90;0.70;;;;;;;8.43;100.00;100403.44;5046515;28;20033;-61
2024/01/22 05:49:41;;;;;;;2.05;0.82;;;;;;;8.44;100.00;100409.47;5026125;28;20029;-62
2024/01/22 05:52:06;;;;;;;3.13;0.80;;;;;;;8.51;100.00;100414.59;5045803;28;20523;-62
2024/01/22 05:54:32;;;;;;;2.72;0.68;;;;;;;8.52;100.00;100424.00;5032006;28;20121;-62
2024/01/22 05:56:57;;;;;;;0.70;0.52;;;;;;;8.56;100.00;100422.28;5027012;28;20033;-62
2024/01/22 05:59:22;;;;;;;1.70;0.70;;;;;;;8.54;100.00;100427.41;5019825;28;20039;-61
2024/01/22 06:01:48;;;;;;;0.90;0.50;;;;;;;8.61;100.00;100428.25;5027431;28;20400;-62
2024/01/22 06:04:13;;;;;;;1.55;0.57;;;;;;;8.73;100.00;100433.31;5045823;28;20123;-61
2024/01/22 06:06:38;;;;;;;3.13;0.60;;;;;;;8.64;100.00;100433.38;5046388;28;20120;-62
2024/01/22 06:09:04;;;;;;;1.30;0.60;;;;;;;8.69;100.00;100434.22;5036781;28;20034;-62
2024/01/22 06:11:30;;;;;;;2.38;0.57;;;;;;;8.68;100.00;100436.81;5027009;28;20416;-62
2024/01/22 06:13:56;;;;;;;0.70;0.40;;;;;;;8.82;100.00;100429.84;5027727;28;20034;-62
2024/01/22 06:16:21;;;;;;;1.75;0.50;;;;;;;8.97;100.00;100416.84;5062575;28;20095;-61
2024/01/22 06:18:48;;;;;;;0.40;0.40;;;;;;;9.07;100.00;100418.50;5046921;28;20377;-62
2024/01/22 06:21:14;;;;;;;0.90;0.60;;;;;;;9.07;100.00;100421.06;5034880;28;20037;-61
2024/01/22 06:23:41;;;;;;;0.50;0.50;;;;;;;9.10;100.00;100416.75;5027746;28;20408;-61
2024/01/22 06:26:08;;;;;;;0.55;0.43;;;;;;;9.09;100.00;100424.47;5027067;28;20061;-62
2024/01/22 06:28:34;;;;;;;0.47;0.32;;;;;;;9.10;100.00;100421.91;5047540;28;20034;-62
2024/01/22 06:30:59;;;;;;;1.30;0.50;;;;;;;9.12;100.00;100416.72;5029284;28;20048;-62
2024/01/22 06:33:25;;;;;;;0.63;0.30;;;;;;;9.15;100.00;100406.38;5026702;28;20602;-61
2024/01/22 06:35:50;;;;;;;1.70;0.40;;;;;;;9.14;100.00;100414.97;5035876;28;20817;-69
2024/01/22 06:38:18;;;;;;;0.95;0.40;;;;;;;9.28;100.00;100420.03;5047877;28;20029;-68
2024/01/22 06:40:47;;;;;;;1.08;0.32;;;;;;;9.27;100.00;100421.75;5055414;28;20032;-68
2024/01/22 06:43:13;;;;;;;2.58;0.80;;;;;;;9.30;100.00;100431.19;5033705;28;20398;-69
2024/01/22 06:45:40;;;;;;;0.40;0.40;;;;;;;9.34;100.00;100433.75;5028722;28;20068;-68
2024/01/22 06:48:06;;;;;;;0.93;0.45;;;;;;;9.35;100.00;100427.69;5027659;28;20061;-68
2024/01/22 06:50:31;;;;;;;1.75;0.77;;;;;;;9.35;100.00;100438.00;5032956;28;20053;-68
2024/01/22 06:52:56;;;;;;;1.95;0.40;;;;;;;9.30;100.00;100450.09;5052966;28;20028;-62
2024/01/22 06:55:23;;;;;;;1.10;0.40;;;;;;;9.31;100.00;100456.13;5048142;28;20720;-65
2024/01/22 06:57:49;;;;;;;1.00;0.60;;;;;;;9.31;100.00;100451.81;5046957;28;20109;-65
2024/01/22 07:00:15;;;;;;;1.95;0.80;;;;;;;9.28;100.00;100440.66;5047131;28;20167;-65
2024/01/22 07:02:43;;;;;;;0.95;0.50;;;;;;;9.22;100.00;100436.41;5047259;28;20029;-64
2024/01/22 07:05:10;;;;;;;2.80;1.20;;;;;;;9.26;100.00;100442.41;5046907;28;20507;-64
2024/01/22 07:07:36;;;;;;;3.22;1.15;;;;;;;9.29;100.00;100435.47;5046642;28;20037;-64
2024/01/22 07:10:01;;;;;;;0.57;0.52;;;;;;;9.27;100.00;100439.81;5028866;28;20113;-64
2024/01/22 07:12:29;;;;;;;2.60;0.98;;;;;;;9.25;100.00;100435.53;5047799;28;20033;-64
2024/01/22 07:14:55;;;;;;;1.50;0.93;;;;;;;9.32;100.00;100425.13;5040905;28;20041;-64
2024/01/22 07:17:20;;;;;;;1.88;0.50;;;;;;;9.34;100.00;100415.69;5032368;28;20034;-61
2024/01/22 07:19:45;;;;;;;2.33;0.63;;;;;;;9.42;100.00;100425.94;5032811;28;20034;-61
2024/01/22 07:22:11;;;;;;;2.33;0.47;;;;;;;9.51;100.00;100418.09;5057625;28;20060;-63
2024/01/22 07:24:37;;;;;;;0.82;0.47;;;;;;;9.51;100.00;100431.84;5025607;28;20088;-63
2024/01/22 07:27:03;;;;;;;0.52;0.40;;;;;;;9.53;100.00;100427.53;5027389;28;20404;-59
2024/01/22 07:29:28;;;;;;;2.38;0.40;;;;;;;9.57;100.00;100430.94;5034253;28;20040;-59
2024/01/22 07:31:54;;;;;;;0.68;0.40;;;;;;;9.54;100.00;100437.00;5050170;28;20602;-59
2024/01/22 07:34:20;;;;;;;1.95;0.50;;;;;;;9.54;100.00;100438.72;5030355;28;20033;-58
2024/01/22 07:36:45;;;;;;;2.03;0.50;;;;;;;9.55;100.00;100436.13;5030258;28;20108;-59
2024/01/22 07:39:11;;;;;;;1.25;0.55;;;;;;;9.60;100.00;100444.72;5028251;28;20116;-58
2024/01/22 07:41:38;;;;;;;0.52;0.40;;;;;;;9.70;100.00;100448.06;5030119;28;20044;-61
2024/01/22 07:44:04;;;;;;;0.75;0.43;;;;;;;9.66;100.00;100461.84;5035027;28;20486;-61
2024/01/22 07:46:30;;;;;;;1.17;0.40;;;;;;;9.75;100.00;100450.59;5030492;28;20075;-62
2024/01/22 07:48:55;;;;;;;1.02;0.88;;;;;;;9.77;100.00;100457.44;5047177;28;20040;-61
2024/01/22 07:51:21;;;;;;;1.75;0.45;;;;;;;9.69;100.00;100443.75;5049651;28;20087;-61
2024/01/22 07:53:46;;;;;;;0.70;0.40;;;;;;;9.80;100.00;100443.63;5029708;28;20037;-61
2024/01/22 07:56:12;;;;;;;1.30;0.43;;;;;;;9.80;100.00;100452.25;5028500;28;20044;-61
2024/01/22 07:58:39;;;;;;;0.50;0.40;;;;;;;10.00;100.00;100446.88;5028473;28;20040;-61
2024/01/22 08:01:04;;;;;;;1.05;0.38;;;;;;;10.01;100.00;100451.16;5047856;28;20505;-69
2024/01/22 08:03:30;;;;;;;1.85;0.50;;;;;;;10.02;100.00;100458.91;5036473;28;20053;-69
2024/01/22 08:05:55;;;;;;;2.40;0.50;;;;;;;10.03;100.00;100459.75;5027982;28;20029;-69
2024/01/22 08:08:21;;;;;;;0.40;0.38;;;;;;;9.95;100.00;100469.28;5034249;28;20120;-68
2024/01/22 08:10:46;;;;;;;0.55;0.30;;;;;;;10.00;100.00;100475.28;5055834;28;20040;-69
2024/01/22 08:13:12;;;;;;;0.50;0.40;;;;;;;10.03;100.00;100463.16;5050300;28;20580;-69
2024/01/22 08:15:38;;;;;;;1.63;0.40;;;;;;;10.03;100.00;100473.50;5050656;28;20037;-69
2024/01/22 08:18:03;;;;;;;0.95;0.30;;;;;;;10.09;100.00;100475.16;5044853;28;20457;-69
2024/01/22 08:20:28;;;;;;;1.23;0.60;;;;;;;10.05;100.00;100476.94;5040893;28;20033;-69
2024/01/22 08:22:54;;;;;;;0.73;0.47;;;;;;;10.19;100.00;100471.63;5049736;28;20461;-69
2024/01/22 08:25:26;;;;;;;1.30;0.40;;;;;;;10.09;100.00;100475.16;5052195;28;20033;-69
2024/01/22 08:27:52;;;;;;;1.45;0.60;;;;;;;10.04;100.00;100479.53;5052938;28;20033;-70
2024/01/22 08:30:17;;;;;;;0.40;0.40;;;;;;;10.09;100.00;100470.84;5037793;28;20097;-69
2024/01/22 08:32:43;;;;;;;1.23;0.40;;;;;;;10.14;100.00;100458.75;5036762;28;20527;-69
2024/01/22 08:35:09;;;;;;;0.30;0.30;;;;;;;10.25;100.00;100461.22;5046907;28;20056;-69
2024/01/22 08:37:37;;;;;;;0.95;0.40;;;;;;;10.36;100.00;100456.75;5029858;28;20026;-69
2024/01/22 08:40:05;;;;;;;0.30;0.30;;;;;;;10.49;99.90;100452.28;5046923;28;20025;-69
2024/01/22 08:42:32;;;;;;;0.45;0.40;;;;;;;10.65;98.94;100446.06;5049335;28;20052;-69
2024/01/22 08:44:57;;;;;;;0.90;0.40;;;;;;;10.69;98.88;100447.72;5049253;28;20033;-69
2024/01/22 08:47:22;;;;;;;0.30;0.30;;;;;;;10.77;97.49;100427.81;5062641;28;20047;-70
2024/01/22 08:49:48;;;;;;;1.75;0.50;;;;;;;10.83;97.20;100426.84;5049154;28;20059;-69
2024/01/22 08:52:13;;;;;;;0.93;0.60;;;;;;;10.85;96.18;100419.91;5028586;28;20365;-69
2024/01/22 08:54:39;;;;;;;0.60;0.30;;;;;;;10.87;96.44;100429.34;5043886;28;20129;-69
2024/01/22 08:57:04;;;;;;;1.75;0.40;;;;;;;10.89;95.40;100427.59;5048482;28;20170;-69
2024/01/22 08:59:29;;;;;;;2.28;0.77;;;;;;;10.91;94.99;100417.25;5049097;28;20522;-69
2024/01/22 09:01:55;;;;;;;1.35;0.40;;;;;;;10.90;94.90;100410.34;5048509;28;20074;-69
2024/01/22 09:04:20;;;;;;;1.88;0.65;;;;;;;10.96;94.20;100410.25;5049081;28;20037;-69
2024/01/22 09:06:45;;;;;;;2.38;1.23;;;;;;;11.06;93.89;100396.31;5047998;28;20041;-69
2024/01/22 09:09:11;;;;;;;2.20;1.10;;;;;;;11.10;92.78;100385.03;5048327;28;20560;-70
2024/01/22 09:11:36;;;;;;;3.58;0.73;;;;;;;11.18;92.83;100381.44;5038222;28;20132;-69
2024/01/22 09:14:03;;;;;;;1.58;0.82;;;;;;;11.27;92.06;100388.19;5049149;28;20027;-65
2024/01/22 09:16:29;;;;;;;1.80;0.82;;;;;;;11.34;91.20;100382.88;5050715;28;20029;-63
2024/01/22 09:18:56;;;;;;;6.25;1.40;;;;;;;11.33;91.30;100378.59;5038410;28;20037;-63
2024/01/22 09:21:22;;;;;;;4.53;1.50;;;;;;;11.40;90.75;100376.72;5027942;28;20034;-64
2024/01/22 09:23:47;;;;;;;6.47;1.70;;;;;;;11.43;90.32;100373.22;5028350;28;20037;-64
2024/01/22 09:26:12;;;;;;;4.13;1.50;;;;;;;11.48;90.14;100361.97;5029821;28;20681;-64
2024/01/22 09:28:38;;;;;;;3.08;1.10;;;;;;;11.50;90.22;100367.09;5048478;28;20033;-64
2024/01/22 09:31:03;;;;;;;4.68;1.20;;;;;;;11.57;89.04;100356.63;5029632;28;20037;-64
2024/01/22 09:33:29;;;;;;;5.75;1.60;;;;;;;11.73;88.50;100344.22;5028102;28;20045;-66
2024/01/22 09:35:55;;;;;;;4.57;1.13;;;;;;;11.75;88.54;100338.13;5036583;28;20025;-66
2024/01/22 09:38:21;;;;;;;3.72;1.20;;;;;;;11.95;87.62;100340.31;5047905;28;20036;-66
2024/01/22 09:40:49;;;;;;;5.18;1.42;;;;;;;11.98;87.64;100329.03;5048006;28;20083;-70
2024/01/22 09:43:15;;;;;;;7.03;1.20;;;;;;;11.99;87.25;100339.34;5046947;28;20128;-69
2024/01/22 09:45:41;;;;;;;2.60;0.85;;;;;;;12.01;87.63;100355.75;5047637;28;20465;-70
2024/01/22 09:48:08;;;;;;;2.67;0.80;;;;;;;12.10;87.34;100349.50;5037197;28;20068;-69
2024/01/22 09:50:33;;;;;;;2.25;0.70;;;;;;;12.14;87.20;100375.31;5027502;28;20064;-67
2024/01/22 09:53:10;;;;;;;3.47;1.08;;;;;;;12.14;87.73;100377.91;5034032;28;20045;-65
2024/01/22 09:55:40;;;;;;;3.60;0.70;;;;;;;12.19;87.27;100376.09;5047524;28;20166;-70
2024/01/22 09:58:09;;;;;;;1.55;0.70;;;;;;;12.28;86.99;100365.53;5046877;28;20033;-66
2024/01/22 10:00:38;;;;;;;2.83;0.77;;;;;;;12.39;86.38;100357.50;5047209;28;20037;-70
2024/01/22 10:03:03;;;;;;;1.83;0.73;;;;;;;12.41;86.10;100356.56;5037622;28;20053;-70
2024/01/22 10:05:30;;;;;;;0.77;0.30;;;;;;;12.51;85.61;100359.81;5032879;28;20508;-66
2024/01/22 10:07:55;;;;;;;0.45;0.30;;;;;;;12.49;85.72;100365.94;5034019;28;20538;-66
2024/01/22 10:10:21;;;;;;;0.82;0.35;;;;;;;12.45;86.37;100373.78;5028344;28;20041;-66
2024/01/22 10:13:03;;;;;;;0.30;0.30;;;;;;;12.45;86.39;100375.50;5045779;28;20029;-65
2024/01/22 10:15:30;;;;;;;0.30;0.30;;;;;;;12.41;86.89;100376.47;5047013;28;20396;-69
2024/01/22 10:18:16;;;;;;;4.20;0.43;;;;;;;12.36;87.42;100388.66;5032749;28;20051;-70
2024/01/22 10:20:44;;;;;;;1.45;0.47;;;;;;;12.30;87.70;100387.06;5027260;28;20273;-70
2024/01/22 10:23:10;;;;;;;0.75;0.40;;;;;;;12.26;88.15;100389.75;5028254;28;20033;-70
2024/01/22 10:25:36;;;;;;;0.90;0.50;;;;;;;12.22;88.59;100386.38;5026593;28;20536;-70
2024/01/22 10:28:14;;;;;;;1.35;0.60;;;;;;;12.21;88.77;100383.81;5045280;28;20121;-69
2024/01/22 10:30:40;;;;;;;0.60;0.40;;;;;;;12.18;88.88;100383.88;5032385;28;20683;-61
2024/01/22 10:33:15;;;;;;;0.95;0.47;;;;;;;12.19;88.54;100385.59;5026688;28;20108;-62
2024/01/22 10:35:42;;;;;;;0.63;0.30;;;;;;;12.09;89.58;100402.19;5034166;28;20036;-62
2024/01/22 10:38:13;;;;;;;0.85;0.45;;;;;;;12.05;89.84;100383.28;5047099;28;20044;-62
2024/01/22 10:40:40;;;;;;;1.00;0.30;;;;;;;12.06;89.62;100390.16;5047191;28;20120;-69
2024/01/22 10:43:28;;;;;;;0.85;0.55;;;;;;;12.03;89.71;100384.19;5047035;28;20029;-70
2024/01/22 10:45:55;;;;;;;0.43;0.40;;;;;;;12.06;89.40;100377.22;5029069;28;20029;-70
2024/01/22 10:48:27;;;;;;;1.00;0.47;;;;;;;12.04;89.90;100375.53;5034818;28;20442;-64
2024/01/22 10:50:52;;;;;;;0.85;0.47;;;;;;;12.02;89.89;100372.16;5018253;28;20040;-63
2024/01/22 10:53:19;;;;;;;0.85;0.40;;;;;;;12.00;90.00;100382.53;5033151;28;20401;-64
2024/01/22 10:56:24;;;;;;;0.52;0.30;;;;;;;11.96;90.44;100382.63;5027814;28;20033;-64
2024/01/22 10:58:51;;;;;;;0.28;0.28;;;;;;;12.00;90.25;100368.72;5025608;28;20050;-67
2024/01/22 11:01:21;;;;;;;0.57;0.40;;;;;;;11.97;90.56;100369.63;5027482;28;20026;-65
2024/01/22 11:03:52;;;;;;;0.73;0.40;;;;;;;11.95;90.27;100361.03;5045726;28;20116;-65
2024/01/22 11:06:22;;;;;;;1.17;0.50;;;;;;;11.88;90.93;100370.66;5049818;28;20090;-65
2024/01/22 11:08:52;;;;;;;0.50;0.40;;;;;;;11.89;90.68;100366.34;5042610;28;20033;-65
2024/01/22 11:11:20;;;;;;;2.03;0.30;;;;;;;11.87;90.91;100368.94;5030345;28;20132;-64
2024/01/22 11:13:51;;;;;;;0.13;0.13;;;;;;;11.87;90.79;100371.53;5027796;28;20033;-64
2024/01/22 11:16:18;;;;;;;0.65;0.40;;;;;;;11.83;91.96;100384.59;5032677;28;20095;-65
2024/01/22 11:19:19;;;;;;;0.13;0.13;;;;;;;11.73;93.13;100390.81;5040042;28;20033;-64
2024/01/22 11:21:44;;;;;;;0.40;0.30;;;;;;;11.67;93.66;100396.97;5016094;28;20037;-64